Time;durP1;ratioP1;P1;durP2;ratioP2;P2;SDS_P1;SDS_P2;PMS_P1;PMS_P2;Temp;Humidity;BMP_temperature;BMP_pressure;BME280_temperature;BME280_humidity;BME280_pressure;Samples;Min_cycle;Max_cycle;Signal;HPM_P1;HPM_P2
2022/12/14 00:02:22;;;;;;;35.53;24.70;;;;;;;3.56;70.23;100590.38;5011707;28;20148;-81
2022/12/14 00:04:50;;;;;;;35.83;25.27;;;;;;;2.87;70.38;100482.53;5001418;28;20372;-81
2022/12/14 00:07:31;;;;;;;39.05;24.80;;;;;;;3.72;69.99;100624.47;4915015;29;20656;-82
2022/12/14 00:09:58;;;;;;;38.88;25.63;;;;;;;3.74;70.18;100631.31;4924635;29;20484;-80
2022/12/14 00:12:24;;;;;;;39.97;26.27;;;;;;;2.95;69.72;100474.19;4923939;29;20058;-82
2022/12/14 00:14:51;;;;;;;38.40;24.23;;;;;;;3.80;69.75;100624.84;4919467;28;20062;-82
2022/12/14 00:17:18;;;;;;;37.27;25.27;;;;;;;3.63;69.10;100587.31;4907742;29;20163;-79
2022/12/14 00:19:48;;;;;;;35.78;24.38;;;;;;;3.70;69.60;100597.44;4923893;29;20299;-81
2022/12/14 00:22:16;;;;;;;39.47;24.37;;;;;;;3.83;69.69;100629.88;4909102;29;20615;-82
2022/12/14 00:24:46;;;;;;;34.93;24.40;;;;;;;3.58;70.01;100599.03;4922836;29;20048;-81
2022/12/14 00:27:15;;;;;;;39.40;24.53;;;;;;;2.00;69.32;100327.78;4908014;29;20051;-82
2022/12/14 00:29:43;;;;;;;34.75;24.42;;;;;;;3.57;69.69;100582.44;4924184;29;20051;-81
2022/12/14 00:32:13;;;;;;;32.13;23.02;;;;;;;3.88;69.63;100643.59;4931937;28;20054;-81
2022/12/14 00:34:42;;;;;;;33.23;22.67;;;;;;;3.85;69.58;100628.03;4943334;28;20169;-81
2022/12/14 00:37:09;;;;;;;34.00;23.00;;;;;;;3.82;68.70;100617.72;4927501;28;20112;-81
2022/12/14 00:39:38;;;;;;;34.50;23.17;;;;;;;3.17;68.79;100507.84;5020118;28;20065;-81
2022/12/14 00:42:14;;;;;;;31.70;24.02;;;;;;;3.34;68.84;100527.84;5001969;28;20068;-83
2022/12/14 00:44:41;;;;;;;32.63;22.20;;;;;;;3.90;68.65;100609.38;5003263;28;20760;-81
2022/12/14 00:47:15;;;;;;;35.00;23.02;;;;;;;3.75;68.45;100595.38;5020318;28;20480;-83
2022/12/14 00:49:42;;;;;;;28.98;21.83;;;;;;;3.28;69.17;100523.81;4980518;28;20053;-82
2022/12/14 00:52:14;;;;;;;37.25;24.10;;;;;;;2.75;68.63;100433.44;5016810;28;20056;-82
2022/12/14 00:54:42;;;;;;;37.45;23.85;;;;;;;2.40;68.38;100360.31;4989803;28;20133;-81
2022/12/14 00:57:15;;;;;;;32.13;23.33;;;;;;;3.66;67.90;100574.94;5004306;28;20407;-80
2022/12/14 00:59:46;;;;;;;33.60;23.30;;;;;;;3.87;68.39;100596.44;5003814;28;20093;-82
2022/12/14 01:02:13;;;;;;;29.70;22.77;;;;;;;3.96;68.51;100612.47;4996436;28;20064;-81
2022/12/14 01:04:43;;;;;;;37.83;23.23;;;;;;;2.93;68.64;100452.47;5003050;28;20158;-79
2022/12/14 01:07:16;;;;;;;37.45;24.35;;;;;;;3.70;68.76;100593.03;5003872;28;20045;-81
2022/12/14 01:09:52;;;;;;;37.88;24.27;;;;;;;3.61;69.00;100573.41;5003755;28;20073;-83
2022/12/14 01:12:23;;;;;;;41.05;25.10;;;;;;;3.96;68.68;100635.28;5003942;28;20750;-81
2022/12/14 01:14:50;;;;;;;34.78;24.08;;;;;;;3.19;68.74;100525.19;5004087;28;20049;-83
2022/12/14 01:17:17;;;;;;;36.10;24.50;;;;;;;3.92;68.98;100631.13;5003780;28;20050;-82
2022/12/14 01:20:08;;;;;;;38.60;23.58;;;;;;;3.74;69.33;100607.69;5003404;28;20057;-82
2022/12/14 01:22:33;;;;;;;34.72;23.77;;;;;;;3.83;70.37;100629.88;5002357;28;20053;-82
2022/12/14 01:25:00;;;;;;;35.05;23.30;;;;;;;3.83;69.91;100630.72;5006524;28;20049;-82
2022/12/14 01:27:31;;;;;;;32.65;23.33;;;;;;;3.99;69.04;100630.66;5002576;28;20049;-82
2022/12/14 01:30:06;;;;;;;33.38;23.05;;;;;;;4.11;68.22;100634.31;5001838;28;20611;-82
2022/12/14 01:32:33;;;;;;;35.20;24.42;;;;;;;4.03;68.23;100626.09;4999211;28;20037;-82
2022/12/14 01:35:22;;;;;;;35.03;24.05;;;;;;;3.54;68.51;100560.75;4998172;28;20140;-81
2022/12/14 01:37:48;;;;;;;30.27;22.13;;;;;;;3.09;67.67;100474.22;5001972;28;20045;-82
2022/12/14 01:40:19;;;;;;;32.35;22.85;;;;;;;3.48;67.91;100534.91;4999072;28;20156;-80
2022/12/14 01:42:49;;;;;;;34.10;22.00;;;;;;;2.96;68.09;100436.53;4999900;28;20436;-80
2022/12/14 01:45:21;;;;;;;35.50;22.23;;;;;;;4.01;68.02;100599.06;4994804;28;20203;-82
2022/12/14 01:48:00;;;;;;;31.70;21.75;;;;;;;3.85;67.39;100580.75;4989759;28;20049;-82
2022/12/14 01:50:42;;;;;;;32.72;22.92;;;;;;;3.14;66.98;100452.97;4992424;28;20463;-82
2022/12/14 01:53:18;;;;;;;30.42;20.33;;;;;;;4.03;66.94;100584.88;5019189;28;20084;-83
2022/12/14 01:55:52;;;;;;;31.25;20.40;;;;;;;3.30;66.74;100455.50;5001247;28;20170;-81
2022/12/14 01:58:25;;;;;;;28.40;20.17;;;;;;;3.56;66.73;100491.47;5015665;28;20656;-81
2022/12/14 02:00:57;;;;;;;31.92;20.60;;;;;;;2.89;65.59;100361.78;5017383;28;20938;-81
2022/12/14 02:03:35;;;;;;;29.65;20.98;;;;;;;3.44;66.24;100489.59;5004364;28;20144;-81
2022/12/14 02:06:15;;;;;;;26.55;20.95;;;;;;;3.73;66.41;100535.06;5002588;28;20890;-81
2022/12/14 02:08:52;;;;;;;27.10;19.60;;;;;;;2.99;66.41;100412.78;5005572;28;20055;-82
2022/12/14 02:11:37;;;;;;;27.00;18.50;;;;;;;3.50;65.50;100501.53;5002384;28;20246;-82
2022/12/14 02:14:04;;;;;;;27.10;19.10;;;;;;;4.00;65.78;100573.72;5003217;28;20057;-82
2022/12/14 02:16:31;;;;;;;28.08;19.65;;;;;;;3.94;65.41;100577.56;5003642;28;20567;-83
2022/12/14 02:18:58;;;;;;;26.05;19.02;;;;;;;3.92;65.01;100542.66;5000331;28;20464;-82
2022/12/14 02:22:04;;;;;;;31.67;18.55;;;;;;;3.91;65.05;100559.38;4995510;28;20406;-82
2022/12/14 02:25:07;;;;;;;29.55;18.45;;;;;;;3.93;65.46;100557.50;4986253;28;20064;-82
2022/12/14 02:28:08;;;;;;;26.08;19.58;;;;;;;3.90;65.88;100560.31;5021428;28;20408;-81
2022/12/14 02:30:39;;;;;;;27.67;19.33;;;;;;;3.72;65.72;100529.94;5022520;28;20049;-82
2022/12/14 02:33:37;;;;;;;30.05;18.80;;;;;;;3.48;65.15;100478.00;5013979;28;20065;-81
2022/12/14 02:36:19;;;;;;;28.80;19.48;;;;;;;3.57;65.37;100487.94;5017558;28;20570;-80
2022/12/14 02:38:46;;;;;;;24.85;17.70;;;;;;;3.99;65.10;100557.09;5002178;28;20587;-81
2022/12/14 02:41:40;;;;;;;32.95;20.55;;;;;;;3.94;64.76;100529.44;5020452;28;20084;-81
2022/12/14 02:44:34;;;;;;;28.90;19.45;;;;;;;2.69;65.40;100337.63;4999146;28;20181;-81
2022/12/14 02:47:22;;;;;;;28.40;18.83;;;;;;;3.58;65.03;100475.66;5015581;28;20227;-82
2022/12/14 02:50:04;;;;;;;25.02;18.15;;;;;;;4.00;64.59;100534.31;4998810;28;20367;-81
2022/12/14 02:52:52;;;;;;;32.33;21.33;;;;;;;3.40;65.36;100454.00;4980258;28;20137;-83
2022/12/14 02:55:29;;;;;;;32.25;19.98;;;;;;;4.00;64.78;100535.16;4983985;28;20484;-81
2022/12/14 02:58:04;;;;;;;28.98;20.70;;;;;;;3.41;64.43;100440.78;4998666;28;20402;-81
2022/12/14 03:00:36;;;;;;;32.05;21.08;;;;;;;3.09;64.55;100377.19;4980744;28;20657;-82
2022/12/14 03:03:04;;;;;;;30.38;20.73;;;;;;;3.53;64.12;100431.31;5004270;28;20146;-82
2022/12/14 03:05:32;;;;;;;29.05;19.08;;;;;;;3.84;64.40;100481.91;4985725;28;20114;-80
2022/12/14 03:08:09;;;;;;;31.77;20.67;;;;;;;3.96;64.82;100523.16;4986155;28;20085;-82
2022/12/14 03:10:45;;;;;;;32.45;20.65;;;;;;;3.82;64.86;100504.78;5001047;28;20052;-82
2022/12/14 03:13:38;;;;;;;30.70;21.15;;;;;;;3.91;65.16;100516.50;5000171;28;20053;-81
2022/12/14 03:16:12;;;;;;;32.97;19.55;;;;;;;3.91;64.99;100517.34;5017797;28;20058;-81
2022/12/14 03:19:02;;;;;;;36.05;20.17;;;;;;;3.86;66.30;100511.56;5000919;28;20895;-81
2022/12/14 03:21:35;;;;;;;35.35;20.92;;;;;;;3.72;65.50;100485.31;4982305;28;20050;-82
2022/12/14 03:24:13;;;;;;;33.58;22.70;;;;;;;3.52;65.49;100437.50;4997151;28;20317;-82
2022/12/14 03:27:09;;;;;;;32.95;22.00;;;;;;;3.78;66.19;100495.41;4982896;28;20254;-82
2022/12/14 03:29:47;;;;;;;32.50;20.13;;;;;;;3.85;65.18;100491.47;4971338;28;20148;-81
2022/12/14 03:32:21;;;;;;;32.97;20.98;;;;;;;3.69;64.88;100454.84;4981747;28;20288;-81
2022/12/14 03:34:56;;;;;;;30.23;19.70;;;;;;;3.98;64.75;100495.03;4979095;28;20399;-82
2022/12/14 03:37:40;;;;;;;30.60;20.17;;;;;;;3.41;64.92;100395.31;4986573;28;20131;-81
2022/12/14 03:40:10;;;;;;;29.65;20.40;;;;;;;3.81;65.30;100454.06;4986846;28;20592;-82
2022/12/14 03:43:11;;;;;;;30.67;19.98;;;;;;;3.44;64.41;100408.25;4997977;28;20054;-83
2022/12/14 03:45:54;;;;;;;30.92;19.75;;;;;;;3.63;64.65;100421.06;4981229;28;20483;-83
2022/12/14 03:48:34;;;;;;;30.27;20.23;;;;;;;2.95;64.31;100324.72;4981072;28;20135;-82
2022/12/14 03:51:06;;;;;;;28.47;19.23;;;;;;;3.05;64.12;100328.47;4981595;28;20131;-82
2022/12/14 03:53:59;;;;;;;31.83;19.60;;;;;;;4.04;64.97;100484.09;5000976;28;20457;-83
2022/12/14 03:56:49;;;;;;;28.58;20.42;;;;;;;4.14;63.58;100484.38;5001738;28;20061;-83
2022/12/14 03:59:53;;;;;;;29.73;20.20;;;;;;;4.12;63.94;100472.25;4996571;28;20062;-83
2022/12/14 04:02:57;;;;;;;27.58;20.27;;;;;;;2.86;63.65;100267.59;4995841;28;20500;-80
2022/12/14 04:05:43;;;;;;;31.50;20.58;;;;;;;4.04;64.26;100470.97;4984252;28;20496;-80
2022/12/14 04:08:24;;;;;;;30.73;20.20;;;;;;;4.05;64.28;100467.41;5007390;28;20061;-80
2022/12/14 04:19:42;;;;;;;30.65;20.60;;;;;;;3.79;64.45;100408.66;5019727;28;20052;-82
2022/12/14 04:22:24;;;;;;;32.55;20.90;;;;;;;3.93;63.90;100436.69;4988334;28;20050;-82
2022/12/14 04:31:27;;;;;;;27.25;19.25;;;;;;;4.00;63.78;100427.44;5015201;28;20045;-82
2022/12/14 04:34:01;;;;;;;30.10;20.05;;;;;;;3.80;64.46;100384.09;4983609;28;20116;-82
2022/12/14 04:36:42;;;;;;;32.45;20.45;;;;;;;4.11;63.07;100423.31;4983946;28;20057;-81
2022/12/14 04:39:41;;;;;;;29.33;20.38;;;;;;;4.04;64.08;100428.94;4998826;28;20156;-82
2022/12/14 04:42:12;;;;;;;31.02;19.48;;;;;;;3.50;63.65;100329.16;4985689;28;20108;-81
2022/12/14 04:44:52;;;;;;;29.33;19.60;;;;;;;3.92;63.75;100398.22;4985827;28;20347;-81
2022/12/14 04:47:25;;;;;;;28.02;20.25;;;;;;;3.97;63.98;100414.50;4983358;28;20144;-81
2022/12/14 04:50:22;;;;;;;30.17;20.25;;;;;;;3.82;63.95;100371.69;4982155;28;20053;-81
2022/12/14 04:53:00;;;;;;;27.05;19.42;;;;;;;3.58;63.15;100342.59;4999421;28;20540;-81
2022/12/14 04:55:34;;;;;;;27.85;19.48;;;;;;;3.63;63.02;100329.19;4981772;28;20063;-81
2022/12/14 04:58:24;;;;;;;32.17;20.83;;;;;;;4.02;62.81;100394.03;4999778;28;20049;-82
2022/12/14 05:01:14;;;;;;;30.10;18.73;;;;;;;4.07;63.43;100417.38;4999268;28;20401;-82
2022/12/14 05:04:16;;;;;;;30.92;21.55;;;;;;;3.51;63.54;100320.31;4987047;28;20049;-81
2022/12/14 05:07:10;;;;;;;30.25;18.90;;;;;;;3.33;64.58;100300.50;4988112;28;20049;-82
2022/12/14 05:09:54;;;;;;;33.00;20.17;;;;;;;3.58;64.35;100332.09;5003277;28;20227;-82
2022/12/14 05:12:33;;;;;;;31.25;19.67;;;;;;;3.48;64.78;100320.53;4987643;28;20167;-81
2022/12/14 05:15:18;;;;;;;31.10;19.13;;;;;;;4.01;64.47;100381.88;4987508;28;20362;-82
2022/12/14 05:17:48;;;;;;;31.08;19.95;;;;;;;3.84;64.00;100361.09;4985120;28;20160;-82
2022/12/14 05:20:25;;;;;;;28.67;19.40;;;;;;;3.60;64.30;100318.91;4986807;28;20552;-83
2022/12/14 05:22:52;;;;;;;28.38;19.65;;;;;;;4.10;63.98;100398.78;5004655;28;20535;-82
2022/12/14 05:25:29;;;;;;;28.77;20.25;;;;;;;2.61;64.20;100150.34;4994008;28;20142;-82
2022/12/14 05:27:56;;;;;;;30.95;20.02;;;;;;;3.80;65.03;100357.81;5019839;28;20509;-81
2022/12/14 05:30:23;;;;;;;26.65;18.20;;;;;;;3.02;64.59;100213.25;4984765;28;20552;-82
2022/12/14 05:32:51;;;;;;;26.15;18.90;;;;;;;4.12;65.09;100393.44;4984152;28;20279;-80
2022/12/14 05:35:19;;;;;;;30.55;19.00;;;;;;;3.61;65.18;100292.53;4985294;28;20410;-83
2022/12/14 05:37:46;;;;;;;26.23;18.33;;;;;;;3.16;65.11;100210.59;4987218;28;20871;-82
2022/12/14 05:40:15;;;;;;;27.40;18.73;;;;;;;3.63;64.63;100303.78;5002173;28;20045;-81
2022/12/14 05:42:42;;;;;;;26.42;17.95;;;;;;;2.74;64.50;100157.34;5002882;28;20894;-80
2022/12/14 05:45:14;;;;;;;30.83;17.95;;;;;;;3.47;63.93;100271.59;4998768;28;20566;-81
2022/12/14 05:47:41;;;;;;;31.77;18.35;;;;;;;3.41;64.07;100272.00;4982860;28;20222;-81
2022/12/14 05:50:08;;;;;;;27.05;18.27;;;;;;;4.16;65.13;100394.94;4987553;28;20061;-81
2022/12/14 05:52:35;;;;;;;29.63;18.02;;;;;;;2.87;64.38;100173.13;5003481;28;20143;-81
2022/12/14 05:55:01;;;;;;;27.42;18.25;;;;;;;4.26;65.19;100380.25;5002597;28;20526;-80
2022/12/14 05:58:11;;;;;;;25.27;18.20;;;;;;;2.68;65.28;100136.75;5001972;28;20316;-82
2022/12/14 06:00:38;;;;;;;28.65;18.65;;;;;;;4.24;65.00;100382.13;5001937;28;20502;-82
2022/12/14 06:03:08;;;;;;;23.75;17.58;;;;;;;4.20;64.90;100357.00;4996761;28;20076;-81
2022/12/14 06:05:41;;;;;;;28.90;18.15;;;;;;;3.71;65.62;100286.69;5021827;28;20080;-82
2022/12/14 06:08:15;;;;;;;28.35;17.55;;;;;;;3.53;65.54;100270.34;5008289;28;20057;-82
2022/12/14 06:10:41;;;;;;;29.48;18.17;;;;;;;3.50;65.95;100255.66;5015415;28;20478;-82
2022/12/14 06:13:08;;;;;;;25.88;18.08;;;;;;;3.17;66.05;100207.03;5037799;28;20053;-82
2022/12/14 06:15:35;;;;;;;29.20;17.23;;;;;;;3.92;66.54;100324.66;5009672;28;20377;-82
2022/12/14 06:18:02;;;;;;;27.20;16.92;;;;;;;3.77;65.89;100289.75;5017226;28;20045;-81
2022/12/14 06:20:34;;;;;;;25.95;17.38;;;;;;;4.02;65.97;100343.28;5019927;28;20061;-81
2022/12/14 06:23:09;;;;;;;26.40;17.48;;;;;;;3.92;66.04;100322.03;4987765;28;20085;-83
2022/12/14 06:25:36;;;;;;;25.95;17.95;;;;;;;4.35;65.37;100377.03;4999704;28;20864;-82
2022/12/14 06:28:02;;;;;;;29.65;18.00;;;;;;;3.69;64.70;100276.31;5001530;28;20212;-82
2022/12/14 06:30:34;;;;;;;25.23;17.02;;;;;;;4.31;64.97;100388.66;4984742;28;20445;-81
2022/12/14 06:33:03;;;;;;;27.38;16.95;;;;;;;4.29;65.64;100393.19;5010209;28;20417;-82
2022/12/14 06:35:30;;;;;;;24.92;16.33;;;;;;;3.70;65.22;100291.09;5001197;28;20057;-82
2022/12/14 06:37:57;;;;;;;28.63;18.05;;;;;;;4.14;65.60;100374.00;4997390;28;20621;-82
2022/12/14 06:40:24;;;;;;;25.60;16.88;;;;;;;3.31;65.61;100244.66;4985819;28;20562;-82
2022/12/14 06:42:51;;;;;;;28.25;18.17;;;;;;;4.12;65.88;100364.56;4983369;28;20254;-82
2022/12/14 06:45:23;;;;;;;24.08;16.63;;;;;;;4.29;65.55;100386.13;4979079;28;20046;-82
2022/12/14 06:47:57;;;;;;;20.58;15.00;;;;;;;3.42;64.93;100240.41;4981484;28;20472;-81
2022/12/14 06:50:26;;;;;;;25.02;15.82;;;;;;;3.80;65.40;100305.31;4999377;28;20367;-81
2022/12/14 06:52:56;;;;;;;26.13;16.52;;;;;;;3.81;66.01;100307.00;4985915;28;20092;-82
2022/12/14 06:55:25;;;;;;;26.95;17.08;;;;;;;3.82;66.09;100328.84;5000221;28;20057;-83
2022/12/14 06:57:53;;;;;;;22.95;15.93;;;;;;;2.74;66.13;100144.25;5001211;28;20314;-82
2022/12/14 07:00:21;;;;;;;30.10;19.02;;;;;;;3.60;66.01;100269.03;4982849;28;20171;-82
2022/12/14 07:02:51;;;;;;;24.58;17.25;;;;;;;2.83;66.06;100128.84;4985618;28;20384;-83
2022/12/14 07:05:20;;;;;;;23.70;16.40;;;;;;;4.34;66.04;100374.47;4992496;28;20790;-83
2022/12/14 07:07:48;;;;;;;24.98;16.83;;;;;;;3.57;65.98;100246.44;4986116;28;20143;-79
2022/12/14 07:10:16;;;;;;;27.65;16.20;;;;;;;4.04;65.80;100334.38;5018600;28;20042;-79
2022/12/14 07:12:48;;;;;;;29.42;17.70;;;;;;;4.36;65.66;100383.13;5014457;28;20053;-79
2022/12/14 07:15:15;;;;;;;22.35;15.38;;;;;;;4.06;65.20;100321.97;5013947;28;20056;-79
2022/12/14 07:17:42;;;;;;;26.17;15.93;;;;;;;4.01;64.98;100302.22;4983016;28;20056;-79
2022/12/14 07:20:09;;;;;;;28.90;17.60;;;;;;;4.26;64.99;100344.28;5001134;28;20166;-80
2022/12/14 07:22:39;;;;;;;29.45;16.83;;;;;;;4.18;65.46;100316.88;4985441;28;20042;-82
2022/12/14 07:25:13;;;;;;;24.20;15.82;;;;;;;3.72;64.92;100243.75;4986202;28;20045;-82
2022/12/14 07:27:40;;;;;;;24.90;16.55;;;;;;;4.36;65.21;100352.41;4983903;28;20130;-82
2022/12/14 07:30:10;;;;;;;26.73;16.75;;;;;;;4.31;64.60;100358.94;4982178;28;20049;-83
2022/12/14 07:32:40;;;;;;;29.63;17.63;;;;;;;4.42;65.96;100373.03;5001163;28;20045;-82
2022/12/14 07:35:09;;;;;;;25.93;16.63;;;;;;;3.81;65.98;100285.13;4984702;28;20629;-81
2022/12/14 07:37:42;;;;;;;31.88;18.92;;;;;;;4.41;66.53;100365.25;4981716;28;20438;-82
2022/12/14 07:40:14;;;;;;;28.48;18.20;;;;;;;2.95;67.43;100109.69;4995019;28;20049;-82
2022/12/14 07:42:41;;;;;;;26.58;17.55;;;;;;;4.51;66.64;100358.41;5022736;28;20167;-82
2022/12/14 07:45:11;;;;;;;28.60;19.50;;;;;;;4.33;66.60;100313.19;5000212;28;20057;-83
2022/12/14 07:47:38;;;;;;;29.23;19.13;;;;;;;4.54;66.78;100349.47;5017063;28;20440;-81
2022/12/14 07:50:06;;;;;;;29.13;20.05;;;;;;;3.13;66.89;100120.75;5005913;28;20045;-83
2022/12/14 07:52:35;;;;;;;30.63;20.13;;;;;;;3.78;66.88;100235.44;4983174;28;20054;-82
2022/12/14 07:55:03;;;;;;;27.95;19.92;;;;;;;4.49;66.68;100344.53;4982000;28;20499;-81
2022/12/14 07:57:30;;;;;;;29.08;18.80;;;;;;;4.12;66.03;100283.09;4996654;28;20049;-82
2022/12/14 08:00:00;;;;;;;31.40;18.40;;;;;;;4.47;65.51;100339.41;4998137;28;20575;-83
2022/12/14 08:02:31;;;;;;;26.43;17.97;;;;;;;4.02;64.65;100262.69;4998420;28;20061;-82
2022/12/14 08:05:00;;;;;;;31.25;19.55;;;;;;;4.39;65.51;100333.78;5000717;28;20049;-83
2022/12/14 08:07:30;;;;;;;29.02;19.35;;;;;;;4.22;65.20;100299.94;4983199;28;20053;-81
2022/12/14 08:10:11;;;;;;;26.95;17.80;;;;;;;4.43;65.00;100344.97;4998580;28;20076;-83
2022/12/14 08:12:44;;;;;;;26.60;18.27;;;;;;;4.07;64.29;100289.50;4983461;28;20140;-82
2022/12/14 08:15:11;;;;;;;30.58;18.48;;;;;;;4.16;64.36;100305.63;4999669;28;20057;-83
2022/12/14 08:17:38;;;;;;;26.40;16.83;;;;;;;4.57;64.16;100354.56;4982713;28;20523;-83
2022/12/14 08:20:05;;;;;;;27.73;17.73;;;;;;;4.15;63.80;100282.91;4996336;28;20046;-83
2022/12/14 08:22:42;;;;;;;26.25;18.50;;;;;;;4.62;63.81;100365.59;4991336;28;20357;-80
2022/12/14 08:25:13;;;;;;;31.75;18.50;;;;;;;4.62;63.77;100365.59;4999100;28;20296;-80
2022/12/14 08:27:43;;;;;;;27.27;17.27;;;;;;;4.63;63.84;100364.63;4983417;28;20167;-80
2022/12/14 08:30:13;;;;;;;27.73;17.98;;;;;;;3.92;63.90;100255.56;4980916;28;20525;-79
2022/12/14 08:32:40;;;;;;;27.73;19.05;;;;;;;4.60;63.69;100363.06;4980607;28;20049;-78
2022/12/14 08:35:09;;;;;;;29.02;17.85;;;;;;;4.37;64.17;100335.72;4981894;28;20442;-79
2022/12/14 08:37:38;;;;;;;26.80;17.60;;;;;;;4.52;63.97;100364.53;4970773;28;20119;-78
2022/12/14 08:40:12;;;;;;;32.97;20.27;;;;;;;4.40;64.72;100345.19;4989870;28;20831;-79
2022/12/14 08:42:39;;;;;;;30.95;20.17;;;;;;;4.47;65.41;100363.06;4987709;28;20053;-78
2022/12/14 08:45:11;;;;;;;32.53;19.95;;;;;;;4.59;66.00;100378.97;4988890;28;20053;-79
2022/12/14 08:47:49;;;;;;;31.17;20.80;;;;;;;4.62;67.00;100381.38;4990929;28;20046;-81
2022/12/14 08:50:19;;;;;;;33.15;21.85;;;;;;;4.38;67.45;100347.91;4990137;28;20080;-79
2022/12/14 08:52:47;;;;;;;32.25;20.85;;;;;;;3.91;67.81;100280.13;5006505;28;20388;-80
2022/12/14 08:55:14;;;;;;;32.88;20.92;;;;;;;4.21;67.63;100316.66;5005987;28;20086;-79
2022/12/14 08:57:48;;;;;;;30.15;20.67;;;;;;;4.08;67.38;100271.97;4986067;28;20303;-79
2022/12/14 09:00:21;;;;;;;34.70;21.38;;;;;;;4.64;67.43;100372.44;5002201;28;20057;-81
2022/12/14 09:02:49;;;;;;;32.20;20.52;;;;;;;4.56;67.52;100371.25;4983053;28;20045;-81
2022/12/14 09:05:22;;;;;;;28.45;21.33;;;;;;;4.31;66.90;100328.22;5003935;28;20103;-81
2022/12/14 09:07:49;;;;;;;;;;;;;;;4.60;68.21;100373.56;4982390;28;20053;-79
2022/12/14 09:10:19;;;;;;;36.28;20.70;;;;;;;3.74;68.80;100237.47;4984870;28;19975;-80
2022/12/14 09:12:46;;;;;;;32.70;21.40;;;;;;;4.61;68.35;100364.75;4984601;28;20049;-79
2022/12/14 09:15:13;;;;;;;40.22;22.88;;;;;;;3.16;67.87;100137.16;5002671;28;20057;-79
2022/12/14 09:17:42;;;;;;;34.25;23.48;;;;;;;4.62;67.68;100376.13;4987062;28;20140;-80
2022/12/14 09:20:12;;;;;;;35.92;23.10;;;;;;;4.41;68.04;100320.56;5004415;28;20364;-79
2022/12/14 09:22:40;;;;;;;35.17;23.73;;;;;;;4.39;67.64;100328.53;4984065;28;20085;-80
2022/12/14 09:25:08;;;;;;;35.55;22.90;;;;;;;4.38;67.05;100326.03;4985678;28;20045;-79
2022/12/14 09:27:36;;;;;;;35.47;23.17;;;;;;;4.14;67.04;100297.00;5001562;28;20049;-79
2022/12/14 09:30:03;;;;;;;37.00;23.73;;;;;;;4.39;66.74;100328.53;5002297;28;20053;-80
2022/12/14 09:32:30;;;;;;;39.30;25.38;;;;;;;4.65;65.50;100357.50;5001662;28;20080;-80
2022/12/14 09:34:58;;;;;;;40.58;26.13;;;;;;;4.52;65.36;100343.50;4978697;28;20407;-80
2022/12/14 09:37:25;;;;;;;40.03;25.83;;;;;;;4.31;66.03;100314.25;4997009;28;20463;-80
2022/12/14 09:39:53;;;;;;;36.03;27.55;;;;;;;4.59;65.97;100374.53;4994296;28;20107;-79
2022/12/14 09:42:34;;;;;;;41.40;28.30;;;;;;;3.27;66.11;100138.22;5004588;28;20295;-79
2022/12/14 09:45:23;;;;;;;;;;;;;;;4.57;65.91;100367.69;4994943;28;20285;-80
2022/12/14 09:48:03;;;;;;;40.00;26.48;;;;;;;4.47;67.10;100347.28;5000692;28;19924;-80
2022/12/14 09:50:30;;;;;;;44.03;27.98;;;;;;;4.46;66.62;100350.84;4977696;28;20552;-79
2022/12/14 09:53:04;;;;;;;48.22;27.00;;;;;;;4.34;66.48;100335.91;5002545;28;20867;-79
2022/12/14 09:55:36;;;;;;;39.97;26.77;;;;;;;4.59;65.51;100382.44;4984682;28;20516;-80
2022/12/14 09:58:20;;;;;;;41.63;25.63;;;;;;;4.54;65.78;100354.75;5003470;28;20148;-80
2022/12/14 10:01:44;;;;;;;45.05;24.85;;;;;;;4.64;65.21;100379.50;5005845;28;20053;-83
2022/12/14 10:04:43;;;;;;;39.13;26.17;;;;;;;4.32;66.12;100340.44;4994384;28;20069;-83
2022/12/14 10:07:39;;;;;;;39.40;25.25;;;;;;;4.54;66.28;100391.53;4992773;28;20080;-83
2022/12/14 10:10:52;;;;;;;40.97;26.30;;;;;;;4.56;66.39;100389.66;4990295;28;20240;-83
2022/12/14 10:13:54;;;;;;;38.90;26.38;;;;;;;3.44;67.33;100237.66;4987853;28;20053;-82
2022/12/14 10:16:35;;;;;;;40.83;27.40;;;;;;;3.93;66.26;100305.38;4984060;28;20215;-80
2022/12/14 10:19:19;;;;;;;41.90;27.55;;;;;;;4.38;65.76;100376.81;4983132;28;20126;-82
2022/12/14 10:21:49;;;;;;;40.22;26.30;;;;;;;4.47;66.31;100409.53;4995540;28;20096;-82
2022/12/14 10:24:33;;;;;;;40.17;25.15;;;;;;;4.28;66.98;100388.88;4988138;28;20044;-83
2022/12/14 10:27:00;;;;;;;39.05;25.35;;;;;;;2.93;67.18;100156.16;4967590;28;20098;-83
2022/12/14 10:29:46;;;;;;;45.60;27.38;;;;;;;4.44;66.97;100397.44;4998482;28;20119;-83
2022/12/14 10:32:31;;;;;;;44.78;27.65;;;;;;;4.56;66.72;100392.28;4982917;28;20288;-83
2022/12/14 10:35:24;;;;;;;40.25;26.15;;;;;;;3.54;66.37;100230.88;4986809;28;20056;-82
2022/12/14 10:38:03;;;;;;;36.40;26.20;;;;;;;4.47;67.18;100389.34;5013698;28;20060;-83
2022/12/14 10:40:32;;;;;;;35.00;24.20;;;;;;;4.34;66.86;100356.09;4998832;28;20109;-83
2022/12/14 10:43:03;;;;;;;39.30;26.13;;;;;;;4.45;67.31;100372.81;5002551;28;20096;-84
2022/12/14 10:45:43;;;;;;;38.83;26.25;;;;;;;4.22;67.32;100350.72;4985920;28;20340;-84
2022/12/14 10:48:36;;;;;;;42.75;25.60;;;;;;;4.37;66.77;100351.47;4986314;28;20586;-83
2022/12/14 10:51:09;;;;;;;37.08;24.98;;;;;;;4.22;67.61;100337.59;4988038;28;20076;-83
2022/12/14 10:53:46;;;;;;;38.60;24.25;;;;;;;4.07;66.10;100297.38;5009485;28;20364;-82
2022/12/14 10:56:26;;;;;;;35.60;22.17;;;;;;;4.28;65.29;100303.00;5003272;28;20045;-82
2022/12/14 10:59:19;;;;;;;37.75;23.02;;;;;;;4.29;65.19;100323.06;4986700;28;20218;-83
2022/12/14 11:02:03;;;;;;;35.65;22.42;;;;;;;4.48;64.82;100354.22;4982651;28;20770;-83
2022/12/14 11:04:34;;;;;;;34.45;22.92;;;;;;;4.64;66.19;100366.34;4983006;28;20089;-82
2022/12/14 11:07:06;;;;;;;30.42;22.83;;;;;;;4.53;65.23;100358.31;4965978;28;20140;-82
2022/12/14 11:09:34;;;;;;;36.90;23.00;;;;;;;3.61;65.80;100200.66;4967352;28;20054;-83
2022/12/14 11:12:07;;;;;;;38.17;22.33;;;;;;;3.78;64.71;100198.69;4967939;28;20053;-82
2022/12/14 11:14:35;;;;;;;34.63;21.55;;;;;;;4.21;64.70;100250.97;4969975;28;20139;-82
2022/12/14 11:17:42;;;;;;;34.20;23.05;;;;;;;3.45;64.90;100147.53;4971254;28;20216;-83
2022/12/14 11:20:17;;;;;;;38.05;22.10;;;;;;;3.80;65.19;100207.31;4976471;28;20400;-82
2022/12/14 11:22:45;;;;;;;40.88;24.77;;;;;;;4.10;64.84;100249.03;4990303;28;20049;-80
2022/12/14 11:25:39;;;;;;;35.40;24.13;;;;;;;4.33;65.19;100273.78;5016439;28;20204;-80
2022/12/14 11:28:34;;;;;;;37.08;24.50;;;;;;;4.34;65.35;100278.06;4999209;28;20135;-80
2022/12/14 11:31:03;;;;;;;37.78;24.25;;;;;;;4.80;65.27;100353.81;5016341;28;20045;-81
2022/12/14 11:33:46;;;;;;;37.72;25.80;;;;;;;4.49;65.33;100292.81;4997916;28;20383;-81
2022/12/14 11:36:23;;;;;;;43.72;26.75;;;;;;;4.81;65.69;100337.09;5000192;28;20076;-81
2022/12/14 11:39:00;;;;;;;42.78;25.48;;;;;;;4.57;65.40;100289.66;5014830;28;20355;-81
2022/12/14 11:41:39;;;;;;;40.08;26.02;;;;;;;4.30;66.00;100250.34;5000197;28;20096;-81
2022/12/14 11:44:14;;;;;;;37.78;25.67;;;;;;;4.81;65.56;100331.84;5000475;28;20053;-83
2022/12/14 11:46:53;;;;;;;46.03;24.83;;;;;;;4.91;65.87;100340.75;5015829;28;20048;-82
2022/12/14 11:49:43;;;;;;;38.83;25.70;;;;;;;4.79;66.16;100333.72;4997197;28;20084;-84
2022/12/14 11:52:20;;;;;;;39.40;24.98;;;;;;;4.64;65.95;100303.25;4999890;28;20041;-81
2022/12/14 11:55:00;;;;;;;42.15;25.85;;;;;;;3.55;66.19;100124.97;4987683;28;20458;-82
2022/12/14 11:57:35;;;;;;;39.22;25.27;;;;;;;3.56;66.66;100128.41;4999765;28;20049;-81
2022/12/14 12:00:20;;;;;;;36.22;25.23;;;;;;;3.84;66.98;100175.50;4985450;28;20123;-83
2022/12/14 12:02:59;;;;;;;38.58;25.50;;;;;;;4.76;66.91;100305.00;5002165;28;20738;-81
2022/12/14 12:05:30;;;;;;;39.75;26.98;;;;;;;4.12;67.40;100199.03;4980745;28;20579;-82
2022/12/14 12:08:06;;;;;;;41.58;26.77;;;;;;;4.31;67.65;100211.75;4996271;28;20398;-82
2022/12/14 12:10:46;;;;;;;41.67;26.88;;;;;;;4.93;67.35;100307.31;4995317;28;20512;-83